createdAt,value
2018-08-16T00:01:08.568Z,101041.13
2018-08-16T00:03:39.454Z,101036.34
2018-08-16T00:06:08.806Z,101033.30
2018-08-16T00:08:37.194Z,101045.98
2018-08-16T00:11:05.236Z,101040.78
2018-08-16T00:13:33.405Z,101033.41
2018-08-16T00:16:01.623Z,101041.29
2018-08-16T00:18:29.417Z,101030.91
2018-08-16T00:20:58.592Z,101024.91
2018-08-16T00:23:26.380Z,101028.02
2018-08-16T00:25:54.171Z,101026.31
2018-08-16T00:28:22.005Z,101020.20
2018-08-16T00:30:49.729Z,101019.76
2018-08-16T00:33:17.550Z,101021.07
2018-08-16T00:35:45.443Z,101025.45
2018-08-16T00:38:13.620Z,101026.75
2018-08-16T00:40:41.408Z,101019.00
2018-08-16T00:43:09.250Z,101017.30
2018-08-16T00:45:37.096Z,101014.79
2018-08-16T00:48:06.806Z,101019.22
2018-08-16T00:50:34.593Z,101020.05
2018-08-16T00:53:02.684Z,101017.02
2018-08-16T00:55:30.513Z,101010.91
2018-08-16T00:57:58.259Z,101013.53
2018-08-16T01:00:26.065Z,101023.48
2018-08-16T01:02:53.882Z,101026.97
2018-08-16T01:05:21.697Z,101022.66
2018-08-16T01:07:49.480Z,101025.77
2018-08-16T01:10:17.351Z,101030.16
2018-08-16T01:12:45.115Z,101029.76
2018-08-16T01:15:15.926Z,101035.40
2018-08-16T01:17:44.200Z,101033.31
2018-08-16T01:20:12.105Z,101043.03
2018-08-16T01:22:40.033Z,101041.33
2018-08-16T01:25:09.456Z,101042.21
2018-08-16T01:27:37.505Z,101043.95
2018-08-16T01:30:06.231Z,101038.71
2018-08-16T01:32:34.040Z,101041.38
2018-08-16T01:35:01.837Z,101034.49
2018-08-16T01:37:29.660Z,101036.28
2018-08-16T01:39:57.533Z,101033.23
2018-08-16T01:42:25.361Z,101030.65
2018-08-16T01:44:53.148Z,101040.27
2018-08-16T01:47:20.892Z,101041.62
2018-08-16T01:49:48.703Z,101032.49
2018-08-16T01:52:16.448Z,101035.66
2018-08-16T01:54:44.240Z,101038.32
2018-08-16T01:57:12.048Z,101033.55
2018-08-16T01:59:39.863Z,101039.23
2018-08-16T02:02:07.795Z,101033.25
2018-08-16T02:04:35.520Z,101033.38
2018-08-16T02:07:03.744Z,101031.73
2018-08-16T02:09:31.776Z,101037.48
2018-08-16T02:11:59.588Z,101036.21
2018-08-16T02:14:27.383Z,101034.03
2018-08-16T02:16:55.182Z,101033.20
2018-08-16T02:19:23.020Z,101037.48
2018-08-16T02:21:51.249Z,101032.64
2018-08-16T02:24:19.004Z,101029.54
2018-08-16T02:26:46.825Z,101032.59
2018-08-16T02:29:14.655Z,101033.47
2018-08-16T02:31:42.477Z,101032.64
2018-08-16T02:34:10.273Z,101038.80
2018-08-16T02:36:38.017Z,101034.03
2018-08-16T02:39:08.449Z,101030.98
2018-08-16T02:41:36.577Z,101038.83
2018-08-16T02:44:05.197Z,101037.95
2018-08-16T02:46:33.005Z,101037.92
2018-08-16T02:49:00.866Z,101035.73
2018-08-16T02:51:28.688Z,101035.26
2018-08-16T02:53:56.404Z,101038.31
2018-08-16T02:56:24.296Z,101034.86
2018-08-16T02:58:52.071Z,101036.21
2018-08-16T03:01:19.824Z,101035.78
2018-08-16T03:03:47.621Z,101035.30
2018-08-16T03:06:15.469Z,101032.60
2018-08-16T03:08:43.246Z,101034.30
2018-08-16T03:11:11.063Z,101028.58
2018-08-16T03:13:38.900Z,101029.41
2018-08-16T03:16:07.007Z,101023.30
2018-08-16T03:18:34.792Z,101023.73
2018-08-16T03:21:02.569Z,101020.16
2018-08-16T03:23:30.372Z,101017.93
2018-08-16T03:25:58.449Z,101019.20
2018-08-16T03:28:26.202Z,101029.63
2018-08-16T03:30:54.034Z,101028.56
2018-08-16T03:33:21.835Z,101026.34
2018-08-16T03:35:49.595Z,101030.16
2018-08-16T03:38:17.373Z,101027.77
2018-08-16T03:40:45.173Z,101031.51
2018-08-16T03:43:12.919Z,101025.34
2018-08-16T03:45:41.445Z,101023.53
2018-08-16T03:48:09.274Z,101027.42
2018-08-16T03:50:37.064Z,101026.44
2018-08-16T03:53:05.179Z,101028.39
2018-08-16T03:55:33.027Z,101028.55
2018-08-16T03:58:00.773Z,101019.13
2018-08-16T04:00:28.562Z,101016.19
2018-08-16T04:02:56.357Z,101016.72
2018-08-16T04:05:24.082Z,101022.81
2018-08-16T04:07:51.832Z,101018.81
2018-08-16T04:10:19.572Z,101013.94
2018-08-16T04:12:47.269Z,101007.72
2018-08-16T04:15:15.088Z,100999.33
2018-08-16T04:17:42.817Z,101009.86
2018-08-16T04:20:10.636Z,101007.67
2018-08-16T04:22:38.393Z,101012.45
2018-08-16T04:25:06.332Z,101010.50
2018-08-16T04:27:34.088Z,101008.19
2018-08-16T04:30:01.836Z,101003.23
2018-08-16T04:32:29.603Z,101006.37
2018-08-16T04:34:57.702Z,101006.70
2018-08-16T04:37:25.899Z,101009.23
2018-08-16T04:39:53.661Z,101011.98
2018-08-16T04:42:21.434Z,101009.38
2018-08-16T04:44:49.551Z,101015.45
2018-08-16T04:47:17.274Z,101003.73
2018-08-16T04:49:45.046Z,101012.18
2018-08-16T04:52:12.833Z,101007.89
2018-08-16T04:54:40.676Z,101003.98
2018-08-16T04:57:08.438Z,101003.11
2018-08-16T04:59:36.602Z,101012.23
2018-08-16T05:02:05.532Z,101005.00
2018-08-16T05:04:33.289Z,101011.08
2018-08-16T05:07:01.436Z,101014.52
2018-08-16T05:09:29.182Z,101011.65
2018-08-16T05:11:57.259Z,101000.75
2018-08-16T05:14:25.061Z,101001.00
2018-08-16T05:16:52.846Z,101006.42
2018-08-16T05:19:20.633Z,100996.55
2018-08-16T05:21:48.360Z,100997.24
2018-08-16T05:24:16.099Z,100989.27
2018-08-16T05:26:43.893Z,100991.50
2018-08-16T05:29:11.647Z,100982.19
2018-08-16T05:31:39.495Z,100974.02
2018-08-16T05:34:07.332Z,100974.49
2018-08-16T05:36:35.171Z,100973.73
2018-08-16T05:39:04.361Z,100973.41
2018-08-16T05:41:32.157Z,100967.33
2018-08-16T05:44:00.031Z,100968.69
2018-08-16T05:46:27.832Z,100960.49
2018-08-16T05:48:55.604Z,100965.95
2018-08-16T05:51:23.427Z,100968.72
2018-08-16T05:53:51.614Z,100969.84
2018-08-16T05:56:19.421Z,100968.91
2018-08-16T05:58:47.211Z,100969.20
2018-08-16T06:01:15.012Z,100968.12
2018-08-16T06:03:42.791Z,100964.62
2018-08-16T06:06:10.621Z,100960.95
2018-08-16T06:08:38.640Z,100966.72
2018-08-16T06:11:06.472Z,100952.84
2018-08-16T06:13:34.642Z,100958.65
2018-08-16T06:16:02.408Z,100957.98
2018-08-16T06:18:30.734Z,100956.55
2018-08-16T06:20:58.584Z,100958.36
2018-08-16T06:23:26.425Z,100952.88
2018-08-16T06:25:54.181Z,100950.06
2018-08-16T06:28:21.955Z,100956.59
2018-08-16T06:30:49.680Z,100957.23
2018-08-16T06:33:17.482Z,100950.22
2018-08-16T06:35:45.289Z,100949.32
2018-08-16T06:38:13.073Z,100962.63
2018-08-16T06:40:40.880Z,100955.28
2018-08-16T06:43:08.754Z,100965.31
2018-08-16T06:45:36.566Z,100959.94
2018-08-16T06:48:04.384Z,100957.95
2018-08-16T06:50:32.194Z,100959.27
2018-08-16T06:52:59.972Z,100951.41
2018-08-16T06:55:27.834Z,100944.64
2018-08-16T06:57:55.617Z,100944.64
2018-08-16T07:00:23.380Z,100943.73
2018-08-16T07:02:51.139Z,100931.52
2018-08-16T07:05:18.885Z,100929.34
2018-08-16T07:07:46.722Z,100923.23
2018-08-16T07:10:14.780Z,100925.04
2018-08-16T07:12:42.590Z,100918.58
2018-08-16T07:15:13.193Z,100921.97
2018-08-16T07:17:41.589Z,100915.03
2018-08-16T07:20:09.462Z,100913.08
2018-08-16T07:22:37.233Z,100916.78
2018-08-16T07:25:05.765Z,100910.03
2018-08-16T07:27:33.569Z,100912.74
2018-08-16T07:30:01.402Z,100912.52
2018-08-16T07:32:29.184Z,100898.39
2018-08-16T07:34:57.015Z,100906.34
2018-08-16T07:37:24.794Z,100906.20
2018-08-16T07:39:52.604Z,100901.19
2018-08-16T07:42:20.492Z,100904.41
2018-08-16T07:44:48.320Z,100911.67
2018-08-16T07:47:16.135Z,100917.27
2018-08-16T07:49:43.986Z,100916.70
2018-08-16T07:52:11.892Z,100910.47
2018-08-16T07:54:39.662Z,100920.70
2018-08-16T07:57:07.458Z,100918.13
2018-08-16T07:59:35.482Z,100924.05
2018-08-16T08:02:03.754Z,100931.56
2018-08-16T08:04:31.589Z,100934.95
2018-08-16T08:06:59.527Z,100938.25
2018-08-16T08:09:27.424Z,100940.56
2018-08-16T08:11:55.145Z,100941.44
2018-08-16T08:14:22.971Z,100933.56
2018-08-16T08:16:50.736Z,100931.06
2018-08-16T08:19:18.564Z,100929.72
2018-08-16T08:21:46.443Z,100932.86
2018-08-16T08:24:14.221Z,100932.45
2018-08-16T08:26:42.053Z,100921.11
2018-08-16T08:29:09.916Z,100916.83
2018-08-16T08:31:37.813Z,100922.27
2018-08-16T08:34:05.659Z,100917.41
2018-08-16T08:36:44.656Z,100913.27
2018-08-16T08:39:12.417Z,100917.28
2018-08-16T08:41:40.236Z,100927.36
2018-08-16T08:44:17.135Z,100933.20
2018-08-16T08:46:45.676Z,100927.38
2018-08-16T08:49:13.520Z,100917.91
2018-08-16T08:51:41.333Z,100921.42
2018-08-16T08:54:34.152Z,100911.57
2018-08-16T08:57:13.224Z,100908.05
2018-08-16T08:59:41.340Z,100903.88
2018-08-16T09:02:10.323Z,100910.80
2018-08-16T09:04:38.164Z,100897.08
2018-08-16T09:07:08.380Z,100895.34
2018-08-16T09:09:36.276Z,100900.56
2018-08-16T09:12:15.981Z,100898.22
2018-08-16T09:14:55.505Z,100914.38
2018-08-16T09:17:23.363Z,100903.94
2018-08-16T09:19:51.240Z,100902.89
2018-08-16T09:22:19.028Z,100913.10
2018-08-16T09:24:46.945Z,100911.25
2018-08-16T09:27:14.712Z,100911.38
2018-08-16T09:30:20.066Z,100925.88
2018-08-16T09:32:59.165Z,100925.45
2018-08-16T09:35:27.425Z,100930.83
2018-08-16T09:37:56.808Z,100932.09
2018-08-16T09:40:24.750Z,100929.68
2018-08-16T09:42:52.708Z,100924.51
2018-08-16T09:45:32.433Z,100914.48
2018-08-16T09:48:11.760Z,100916.61
2018-08-16T09:50:39.536Z,100914.52
2018-08-16T09:53:09.556Z,100904.02
2018-08-16T09:55:37.437Z,100904.59
2018-08-16T09:58:06.125Z,100895.78
2018-08-16T10:00:39.397Z,100901.80
2018-08-16T10:03:07.240Z,100894.67
2018-08-16T10:05:35.264Z,100890.28
2018-08-16T10:08:03.118Z,100894.66
2018-08-16T10:10:31.136Z,100890.06
2018-08-16T10:12:58.888Z,100896.46
2018-08-16T10:15:26.716Z,100895.59
2018-08-16T10:17:54.551Z,100892.53
2018-08-16T10:20:22.380Z,100896.02
2018-08-16T10:22:50.188Z,100898.98
2018-08-16T10:25:18.016Z,100901.94
2018-08-16T10:27:46.116Z,100903.05
2018-08-16T10:30:14.709Z,100905.06
2018-08-16T10:32:43.812Z,100892.55
2018-08-16T10:35:11.559Z,100883.39
2018-08-16T10:37:39.663Z,100887.42
2018-08-16T10:40:09.432Z,100884.20
2018-08-16T10:42:37.270Z,100888.45
2018-08-16T10:45:06.230Z,100893.75
2018-08-16T10:47:34.045Z,100893.12
2018-08-16T10:50:02.731Z,100883.97
2018-08-16T10:52:30.565Z,100896.69
2018-08-16T10:54:58.660Z,100894.52
2018-08-16T10:57:26.464Z,100896.60
2018-08-16T10:59:54.272Z,100904.30
2018-08-16T11:02:22.488Z,100888.98
2018-08-16T11:04:50.366Z,100890.60
2018-08-16T11:07:18.171Z,100886.60
2018-08-16T11:09:46.416Z,100907.31
2018-08-16T11:12:14.252Z,100906.56
2018-08-16T11:14:42.184Z,100889.41
2018-08-16T11:17:10.007Z,100896.09
2018-08-16T11:19:37.752Z,100904.16
2018-08-16T11:22:06.125Z,100898.90
2018-08-16T11:24:33.955Z,100903.27
2018-08-16T11:27:01.722Z,100903.73
2018-08-16T11:29:29.579Z,100903.99
2018-08-16T11:31:57.349Z,100888.14
2018-08-16T11:34:25.121Z,100895.15
2018-08-16T11:36:53.293Z,100892.44
2018-08-16T11:39:21.176Z,100888.83
2018-08-16T11:41:48.964Z,100881.91
2018-08-16T11:44:16.703Z,100891.05
2018-08-16T11:46:44.546Z,100892.01
2018-08-16T11:49:12.328Z,100879.20
2018-08-16T11:51:40.084Z,100883.73
2018-08-16T11:54:07.922Z,100884.06
2018-08-16T11:56:35.752Z,100890.70
2018-08-16T11:59:03.602Z,100893.18
2018-08-16T12:01:31.437Z,100887.27
2018-08-16T12:04:05.796Z,100885.25
2018-08-16T12:06:33.596Z,100886.00
2018-08-16T12:09:01.402Z,100889.85
2018-08-16T12:11:29.166Z,100893.58
2018-08-16T12:13:56.960Z,100886.20
2018-08-16T12:16:24.910Z,100895.16
2018-08-16T12:18:52.656Z,100874.59
2018-08-16T12:21:20.400Z,100884.50
2018-08-16T12:23:48.171Z,100895.02
2018-08-16T12:26:16.004Z,100892.06
2018-08-16T12:28:43.756Z,100894.47
2018-08-16T12:31:11.503Z,100897.67
2018-08-16T12:33:39.297Z,100888.30
2018-08-16T12:36:07.132Z,100883.45
2018-08-16T12:38:34.893Z,100880.13
2018-08-16T12:41:03.216Z,100880.33
2018-08-16T12:43:34.423Z,100870.00
2018-08-16T12:46:02.237Z,100882.05
2018-08-16T12:48:29.984Z,100883.55
2018-08-16T12:50:57.734Z,100879.59
2018-08-16T12:53:25.607Z,100876.70
2018-08-16T12:55:53.373Z,100887.86
2018-08-16T12:58:21.204Z,100891.41
2018-08-16T13:00:49.013Z,100881.67
2018-08-16T13:03:16.853Z,100872.08
2018-08-16T13:05:44.652Z,100880.73
2018-08-16T13:08:12.589Z,100870.22
2018-08-16T13:10:40.389Z,100877.87
2018-08-16T13:13:08.234Z,100883.06
2018-08-16T13:15:39.223Z,100883.28
2018-08-16T13:18:07.073Z,100882.73
2018-08-16T13:20:34.901Z,100881.63
2018-08-16T13:23:02.718Z,100882.44
2018-08-16T13:25:30.525Z,100883.77
2018-08-16T13:27:58.414Z,100880.10
2018-08-16T13:30:26.219Z,100883.20
2018-08-16T13:32:54.043Z,100868.86
2018-08-16T13:35:21.925Z,100874.78
2018-08-16T13:37:49.855Z,100874.72
2018-08-16T13:40:17.827Z,100887.38
2018-08-16T13:42:46.333Z,100881.19
2018-08-16T13:45:14.481Z,100874.88
2018-08-16T13:47:43.941Z,100881.18
2018-08-16T13:50:11.755Z,100878.34
2018-08-16T13:52:39.847Z,100881.59
2018-08-16T13:55:07.863Z,100872.97
2018-08-16T13:57:35.869Z,100881.06
2018-08-16T14:00:05.136Z,100876.28
2018-08-16T14:02:33.081Z,100871.87
2018-08-16T14:05:00.934Z,100870.83
2018-08-16T14:07:28.685Z,100877.07
2018-08-16T14:09:56.472Z,100870.23
2018-08-16T14:12:24.295Z,100871.01
2018-08-16T14:14:52.068Z,100869.83
2018-08-16T14:17:19.982Z,100872.45
2018-08-16T14:19:48.164Z,100868.64
2018-08-16T14:22:16.276Z,100876.59
2018-08-16T14:24:44.095Z,100872.03
2018-08-16T14:27:12.813Z,100873.41
2018-08-16T14:29:40.763Z,100878.59
2018-08-16T14:32:08.763Z,100879.22
2018-08-16T14:34:36.461Z,100873.50
2018-08-16T14:37:05.069Z,100872.77
2018-08-16T14:39:32.903Z,100876.50
2018-08-16T14:42:00.871Z,100861.59
2018-08-16T14:44:29.056Z,100870.16
2018-08-16T14:46:57.238Z,100867.72
2018-08-16T14:49:24.971Z,100867.83
2018-08-16T14:51:52.803Z,100858.30
2018-08-16T14:54:20.604Z,100858.92
2018-08-16T14:56:48.369Z,100852.42
2018-08-16T14:59:16.188Z,100853.17
2018-08-16T15:01:44.098Z,100846.33
2018-08-16T15:04:11.959Z,100858.19
2018-08-16T15:06:40.708Z,100850.84
2018-08-16T15:09:10.004Z,100852.19
2018-08-16T15:11:37.922Z,100847.68
2018-08-16T15:14:06.198Z,100851.70
2018-08-16T15:16:34.039Z,100852.42
2018-08-16T15:19:02.712Z,100840.48
2018-08-16T15:21:32.200Z,100853.67
2018-08-16T15:24:01.076Z,100834.73
2018-08-16T15:26:28.905Z,100834.61
2018-08-16T15:28:57.926Z,100842.05
2018-08-16T15:31:26.485Z,100834.62
2018-08-16T15:33:54.950Z,100831.80
2018-08-16T15:36:23.972Z,100832.89
2018-08-16T15:38:52.121Z,100832.28
2018-08-16T15:41:19.928Z,100834.25
2018-08-16T15:43:48.065Z,100836.56
2018-08-16T15:46:16.336Z,100828.26
2018-08-16T15:48:46.286Z,100832.05
2018-08-16T15:51:15.584Z,100827.78
2018-08-16T15:53:44.152Z,100832.30
2018-08-16T15:56:12.274Z,100835.22
2018-08-16T15:58:40.548Z,100836.19
2018-08-16T16:01:08.592Z,100833.85
2018-08-16T16:03:36.519Z,100835.44
2018-08-16T16:06:05.954Z,100829.72
2018-08-16T16:08:35.905Z,100832.75
2018-08-16T16:11:04.063Z,100824.33
2018-08-16T16:13:32.200Z,100823.12
2018-08-16T16:16:00.335Z,100819.95
2018-08-16T16:18:28.545Z,100818.85
2018-08-16T16:20:57.512Z,100820.05
2018-08-16T16:23:27.537Z,100821.05
2018-08-16T16:25:59.180Z,100817.14
2018-08-16T16:28:27.368Z,100806.87
2018-08-16T16:30:55.909Z,100807.88
2018-08-16T16:33:25.416Z,100811.77
2018-08-16T16:35:53.480Z,100809.22
2018-08-16T16:38:21.700Z,100812.25
2018-08-16T16:40:49.763Z,100792.98
2018-08-16T16:43:19.967Z,100799.31
2018-08-16T16:45:47.764Z,100806.27
2018-08-16T16:48:15.588Z,100808.70
2018-08-16T16:50:43.392Z,100805.78
2018-08-16T16:53:11.155Z,100806.13
2018-08-16T16:55:38.986Z,100803.45
2018-08-16T16:58:07.082Z,100797.98
2018-08-16T17:00:34.999Z,100795.67
2018-08-16T17:03:03.279Z,100802.00
2018-08-16T17:05:31.022Z,100791.98
2018-08-16T17:07:58.885Z,100801.76
2018-08-16T17:10:26.773Z,100794.81
2018-08-16T17:12:54.568Z,100797.01
2018-08-16T17:15:22.410Z,100792.13
2018-08-16T17:17:50.182Z,100803.11
2018-08-16T17:20:18.005Z,100799.70
2018-08-16T17:22:45.830Z,100796.25
2018-08-16T17:25:13.645Z,100784.80
2018-08-16T17:27:41.437Z,100788.83
2018-08-16T17:30:09.262Z,100794.78
2018-08-16T17:32:37.036Z,100783.08
2018-08-16T17:35:04.836Z,100787.72
2018-08-16T17:37:32.664Z,100779.91
2018-08-16T17:40:00.460Z,100780.40
2018-08-16T17:42:28.178Z,100776.75
2018-08-16T17:44:56.338Z,100780.88
2018-08-16T17:47:24.124Z,100774.41
2018-08-16T17:49:51.871Z,100775.75
2018-08-16T17:52:19.674Z,100772.21
2018-08-16T17:54:47.503Z,100772.83
2018-08-16T17:57:15.283Z,100768.67
2018-08-16T17:59:43.129Z,100761.97
2018-08-16T18:02:10.887Z,100765.89
2018-08-16T18:04:38.679Z,100765.41
2018-08-16T18:07:06.464Z,100760.62
2018-08-16T18:09:34.407Z,100769.30
2018-08-16T18:12:02.197Z,100777.07
2018-08-16T18:14:29.957Z,100767.68
2018-08-16T18:16:57.780Z,100776.80
2018-08-16T18:19:25.572Z,100771.43
2018-08-16T18:21:53.317Z,100771.09
2018-08-16T18:24:21.158Z,100769.95
2018-08-16T18:26:48.944Z,100773.16
2018-08-16T18:29:17.352Z,100773.63
2018-08-16T18:31:45.157Z,100769.09
2018-08-16T18:34:12.945Z,100771.19
2018-08-16T18:36:40.734Z,100765.69
2018-08-16T18:39:09.092Z,100762.87
2018-08-16T18:41:37.194Z,100766.16
2018-08-16T18:44:05.073Z,100763.59
2018-08-16T18:46:32.915Z,100764.30
2018-08-16T18:49:00.638Z,100759.70
2018-08-16T18:51:29.070Z,100770.67
2018-08-16T18:53:57.465Z,100772.97
2018-08-16T18:56:26.343Z,100771.73
2018-08-16T18:58:54.577Z,100772.73
2018-08-16T19:01:22.468Z,100761.72
2018-08-16T19:03:51.616Z,100771.63
2018-08-16T19:06:19.456Z,100773.31
2018-08-16T19:08:51.715Z,100769.77
2018-08-16T19:11:20.492Z,100771.86
2018-08-16T19:13:49.326Z,100766.02
2018-08-16T19:16:17.153Z,100760.77
2018-08-16T19:18:45.075Z,100763.44
2018-08-16T19:21:14.514Z,100765.16
2018-08-16T19:23:43.662Z,100765.16
2018-08-16T19:26:12.678Z,100770.67
2018-08-16T19:28:40.954Z,100759.56
2018-08-16T19:31:08.759Z,100756.88
2018-08-16T19:33:36.568Z,100751.14
2018-08-16T19:36:04.446Z,100757.98
2018-08-16T19:38:32.279Z,100756.88
2018-08-16T19:41:00.096Z,100742.13
2018-08-16T19:43:27.862Z,100744.56
2018-08-16T19:45:55.630Z,100747.12
2018-08-16T19:48:23.401Z,100746.26
2018-08-16T19:50:51.179Z,100734.33
2018-08-16T19:53:18.941Z,100738.21
2018-08-16T19:55:46.800Z,100741.27
2018-08-16T19:58:14.552Z,100730.92
2018-08-16T20:00:42.383Z,100730.44
2018-08-16T20:03:10.234Z,100725.08
2018-08-16T20:05:38.084Z,100728.86
2018-08-16T20:08:06.341Z,100723.84
2018-08-16T20:10:35.141Z,100724.22
2018-08-16T20:13:03.350Z,100714.83
2018-08-16T20:15:31.224Z,100713.87
2018-08-16T20:18:00.074Z,100725.94
2018-08-16T20:20:27.962Z,100718.23
2018-08-16T20:22:55.773Z,100716.31
2018-08-16T20:25:23.534Z,100723.73
2018-08-16T20:27:51.641Z,100716.55
2018-08-16T20:30:19.521Z,100724.11
2018-08-16T20:32:47.833Z,100720.33
2018-08-16T20:35:15.612Z,100719.84
2018-08-16T20:37:44.504Z,100720.33
2018-08-16T20:40:12.294Z,100711.80
2018-08-16T20:42:40.130Z,100720.22
2018-08-16T20:45:08.947Z,100719.23
2018-08-16T20:47:37.255Z,100717.88
2018-08-16T20:50:06.578Z,100716.44
2018-08-16T20:52:34.411Z,100712.41
2018-08-16T20:55:02.207Z,100713.52
2018-08-16T20:57:30.165Z,100720.56
2018-08-16T20:59:57.845Z,100723.39
2018-08-16T21:02:25.608Z,100714.48
2018-08-16T21:04:53.436Z,100718.87
2018-08-16T21:07:21.207Z,100709.59
2018-08-16T21:09:50.068Z,100720.09
2018-08-16T21:12:17.946Z,100713.48
2018-08-16T21:14:46.442Z,100708.74
2018-08-16T21:17:14.255Z,100707.41
2018-08-16T21:19:42.035Z,100715.07
2018-08-16T21:22:09.825Z,100722.77
2018-08-16T21:24:37.585Z,100709.36
2018-08-16T21:27:05.335Z,100721.91
2018-08-16T21:29:33.071Z,100727.86
2018-08-16T21:32:00.848Z,100713.62
2018-08-16T21:34:28.876Z,100716.31
2018-08-16T21:36:56.942Z,100720.44
2018-08-16T21:39:24.778Z,100714.59
2018-08-16T21:41:52.713Z,100720.81
2018-08-16T21:44:20.553Z,100711.05
2018-08-16T21:46:48.365Z,100716.80
2018-08-16T21:49:16.102Z,100707.03
2018-08-16T21:51:43.871Z,100706.65
2018-08-16T21:54:11.664Z,100714.70
2018-08-16T21:56:39.453Z,100719.58
2018-08-16T21:59:07.279Z,100717.75
2018-08-16T22:01:35.241Z,100718.23
2018-08-16T22:04:03.083Z,100713.73
2018-08-16T22:06:42.152Z,100716.41
2018-08-16T22:09:11.642Z,100710.95
2018-08-16T22:11:39.620Z,100708.75
2018-08-16T22:14:07.460Z,100704.24
2018-08-16T22:16:35.169Z,100709.95
2018-08-16T22:19:03.034Z,100708.13
2018-08-16T22:21:30.772Z,100713.00
2018-08-16T22:23:58.553Z,100704.97
2018-08-16T22:26:26.400Z,100703.62
2018-08-16T22:28:54.128Z,100711.05
2018-08-16T22:31:21.964Z,100706.06
2018-08-16T22:33:49.788Z,100701.93
2018-08-16T22:36:17.665Z,100696.91
2018-08-16T22:38:48.883Z,100699.59
2018-08-16T22:41:16.789Z,100687.52
2018-08-16T22:43:44.524Z,100689.24
2018-08-16T22:46:13.366Z,100690.45
2018-08-16T22:48:41.154Z,100686.94
2018-08-16T22:51:08.938Z,100682.40
2018-08-16T22:53:37.037Z,100684.49
2018-08-16T22:56:07.281Z,100680.58
2018-08-16T22:58:35.073Z,100675.21
2018-08-16T23:01:02.936Z,100671.08
2018-08-16T23:03:30.863Z,100674.24
2018-08-16T23:05:58.589Z,100666.09
2018-08-16T23:08:26.411Z,100674.24
2018-08-16T23:10:54.185Z,100661.80
2018-08-16T23:13:22.256Z,100667.30
2018-08-16T23:15:50.076Z,100656.68
2018-08-16T23:18:17.876Z,100657.05
2018-08-16T23:20:45.692Z,100657.05
2018-08-16T23:23:13.455Z,100653.03
2018-08-16T23:25:41.312Z,100650.34
2018-08-16T23:28:09.096Z,100649.39
2018-08-16T23:30:36.927Z,100638.39
2018-08-16T23:33:04.768Z,100638.05
2018-08-16T23:35:32.549Z,100638.05
2018-08-16T23:38:01.615Z,100640.24
2018-08-16T23:40:29.472Z,100638.91
2018-08-16T23:42:57.212Z,100638.91
2018-08-16T23:45:25.017Z,100635.36
2018-08-16T23:48:04.234Z,100631.45
2018-08-16T23:50:32.035Z,100627.05
2018-08-16T23:53:00.142Z,100631.07
2018-08-16T23:55:28.168Z,100628.91
2018-08-16T23:57:55.917Z,100628.39
